sensor_id;sensor_type;location;lat;lon;timestamp;pressure;altitude;pressure_sealevel;temperature;humidity
60258;BME280;46115;44.484;11.314;2022-10-16T00:00:16;100730.13;;;17.66;79.17
60258;BME280;46115;44.484;11.314;2022-10-16T00:04:38;100735.28;;;17.69;78.89
60258;BME280;46115;44.484;11.314;2022-10-16T00:09:03;100738.38;;;17.63;79.44
60258;BME280;46115;44.484;11.314;2022-10-16T00:13:26;100747.25;;;17.63;79.22
60258;BME280;46115;44.484;11.314;2022-10-16T00:17:48;100734.97;;;17.61;78.88
60258;BME280;46115;44.484;11.314;2022-10-16T00:22:11;100742.84;;;17.75;78.90
60258;BME280;46115;44.484;11.314;2022-10-16T00:26:36;100746.63;;;17.72;78.98
60258;BME280;46115;44.484;11.314;2022-10-16T00:31:02;100747.13;;;17.65;78.93
60258;BME280;46115;44.484;11.314;2022-10-16T00:35:25;100749.28;;;17.72;78.95
60258;BME280;46115;44.484;11.314;2022-10-16T00:39:49;100739.44;;;17.60;79.18
60258;BME280;46115;44.484;11.314;2022-10-16T00:49:18;100738.66;;;17.47;80.08
60258;BME280;46115;44.484;11.314;2022-10-16T00:53:42;100746.78;;;17.45;80.23
60258;BME280;46115;44.484;11.314;2022-10-16T00:58:05;100735.94;;;17.36;80.21
60258;BME280;46115;44.484;11.314;2022-10-16T01:02:28;100737.63;;;17.37;80.49
60258;BME280;46115;44.484;11.314;2022-10-16T01:06:59;100741.78;;;17.41;80.16
60258;BME280;46115;44.484;11.314;2022-10-16T01:11:30;100744.91;;;17.35;80.51
60258;BME280;46115;44.484;11.314;2022-10-16T01:16:00;100725.09;;;17.13;80.61
60258;BME280;46115;44.484;11.314;2022-10-16T01:20:30;100756.69;;;17.20;80.88
60258;BME280;46115;44.484;11.314;2022-10-16T01:24:55;100764.19;;;17.14;80.93
60258;BME280;46115;44.484;11.314;2022-10-16T01:29:26;100756.38;;;17.11;81.43
60258;BME280;46115;44.484;11.314;2022-10-16T01:33:57;100761.50;;;17.14;81.41
60258;BME280;46115;44.484;11.314;2022-10-16T01:38:26;100759.19;;;17.10;81.44
60258;BME280;46115;44.484;11.314;2022-10-16T01:42:55;100771.97;;;17.18;81.50
60258;BME280;46115;44.484;11.314;2022-10-16T01:47:25;100762.38;;;17.15;81.14
60258;BME280;46115;44.484;11.314;2022-10-16T01:51:52;100770.91;;;17.20;80.71
60258;BME280;46115;44.484;11.314;2022-10-16T01:56:17;100755.44;;;16.87;81.87
60258;BME280;46115;44.484;11.314;2022-10-16T02:00:44;100777.47;;;17.03;81.53
60258;BME280;46115;44.484;11.314;2022-10-16T02:05:16;100778.94;;;16.95;82.25
60258;BME280;46115;44.484;11.314;2022-10-16T02:09:42;100786.44;;;17.02;81.66
60258;BME280;46115;44.484;11.314;2022-10-16T02:14:06;100770.41;;;17.02;81.78
60258;BME280;46115;44.484;11.314;2022-10-16T02:18:29;100784.72;;;17.01;82.11
60258;BME280;46115;44.484;11.314;2022-10-16T02:22:54;100781.72;;;16.93;82.19
60258;BME280;46115;44.484;11.314;2022-10-16T02:27:22;100776.81;;;16.87;82.78
60258;BME280;46115;44.484;11.314;2022-10-16T02:31:50;100771.38;;;16.89;82.50
60258;BME280;46115;44.484;11.314;2022-10-16T02:36:14;100773.63;;;16.82;83.08
60258;BME280;46115;44.484;11.314;2022-10-16T02:40:39;100775.22;;;16.72;83.15
60258;BME280;46115;44.484;11.314;2022-10-16T02:45:02;100777.69;;;16.75;83.34
60258;BME280;46115;44.484;11.314;2022-10-16T02:49:25;100791.47;;;16.69;83.68
60258;BME280;46115;44.484;11.314;2022-10-16T02:53:47;100787.25;;;16.52;84.11
60258;BME280;46115;44.484;11.314;2022-10-16T02:58:11;100788.19;;;16.51;84.36
60258;BME280;46115;44.484;11.314;2022-10-16T03:02:35;100791.94;;;16.48;84.45
60258;BME280;46115;44.484;11.314;2022-10-16T03:06:57;100785.00;;;16.46;84.07
60258;BME280;46115;44.484;11.314;2022-10-16T03:11:20;100788.94;;;16.40;84.57
60258;BME280;46115;44.484;11.314;2022-10-16T03:15:44;100784.03;;;16.47;84.32
60258;BME280;46115;44.484;11.314;2022-10-16T03:20:07;100780.72;;;16.43;84.55
60258;BME280;46115;44.484;11.314;2022-10-16T03:24:30;100795.97;;;16.41;84.64
60258;BME280;46115;44.484;11.314;2022-10-16T03:28:53;100796.19;;;16.38;85.02
60258;BME280;46115;44.484;11.314;2022-10-16T03:33:17;100798.31;;;16.33;85.50
60258;BME280;46115;44.484;11.314;2022-10-16T03:37:39;100796.09;;;16.40;85.17
60258;BME280;46115;44.484;11.314;2022-10-16T03:42:02;100762.31;;;16.26;84.79
60258;BME280;46115;44.484;11.314;2022-10-16T03:46:25;100798.00;;;16.50;85.00
60258;BME280;46115;44.484;11.314;2022-10-16T03:50:49;100795.78;;;16.44;85.48
60258;BME280;46115;44.484;11.314;2022-10-16T03:55:13;100787.66;;;16.46;85.02
60258;BME280;46115;44.484;11.314;2022-10-16T03:59:35;100797.91;;;16.39;85.29
60258;BME280;46115;44.484;11.314;2022-10-16T04:03:58;100806.38;;;16.19;86.37
60258;BME280;46115;44.484;11.314;2022-10-16T04:08:22;100815.75;;;16.12;86.44
60258;BME280;46115;44.484;11.314;2022-10-16T04:12:45;100817.16;;;16.17;87.03
60258;BME280;46115;44.484;11.314;2022-10-16T04:17:09;100810.59;;;15.96;86.92
60258;BME280;46115;44.484;11.314;2022-10-16T04:21:32;100824.91;;;16.08;87.12
60258;BME280;46115;44.484;11.314;2022-10-16T04:25:56;100825.53;;;15.99;87.15
60258;BME280;46115;44.484;11.314;2022-10-16T04:30:19;100827.72;;;15.92;87.55
60258;BME280;46115;44.484;11.314;2022-10-16T04:34:42;100831.13;;;15.94;87.33
60258;BME280;46115;44.484;11.314;2022-10-16T04:39:04;100832.09;;;15.93;87.63
60258;BME280;46115;44.484;11.314;2022-10-16T04:43:29;100836.31;;;15.83;88.26
60258;BME280;46115;44.484;11.314;2022-10-16T04:47:52;100847.53;;;15.88;88.01
60258;BME280;46115;44.484;11.314;2022-10-16T04:52:14;100830.03;;;15.84;87.90
60258;BME280;46115;44.484;11.314;2022-10-16T04:56:38;100827.91;;;15.89;88.00
60258;BME280;46115;44.484;11.314;2022-10-16T05:01:09;100839.13;;;15.94;87.34
60258;BME280;46115;44.484;11.314;2022-10-16T05:05:31;100833.81;;;15.94;87.15
60258;BME280;46115;44.484;11.314;2022-10-16T05:09:54;100831.94;;;15.96;87.61
60258;BME280;46115;44.484;11.314;2022-10-16T05:14:17;100836.31;;;15.83;88.04
60258;BME280;46115;44.484;11.314;2022-10-16T05:18:41;100835.97;;;15.75;88.05
60258;BME280;46115;44.484;11.314;2022-10-16T05:23:04;100833.75;;;15.81;87.93
60258;BME280;46115;44.484;11.314;2022-10-16T05:27:27;100834.00;;;15.64;88.67
60258;BME280;46115;44.484;11.314;2022-10-16T05:31:51;100787.13;;;15.33;88.74
60258;BME280;46115;44.484;11.314;2022-10-16T05:36:15;100847.78;;;15.71;88.26
60258;BME280;46115;44.484;11.314;2022-10-16T05:40:39;100854.91;;;15.56;88.56
60258;BME280;46115;44.484;11.314;2022-10-16T05:45:06;100863.13;;;15.67;88.10
60258;BME280;46115;44.484;11.314;2022-10-16T05:49:30;100866.75;;;15.66;88.17
60258;BME280;46115;44.484;11.314;2022-10-16T05:53:54;100857.59;;;15.70;87.87
60258;BME280;46115;44.484;11.314;2022-10-16T05:58:17;100856.84;;;15.68;87.26
60258;BME280;46115;44.484;11.314;2022-10-16T06:02:39;100845.19;;;15.55;87.47
60258;BME280;46115;44.484;11.314;2022-10-16T06:07:02;100872.94;;;15.67;87.57
60258;BME280;46115;44.484;11.314;2022-10-16T06:11:28;100886.63;;;15.75;87.17
60258;BME280;46115;44.484;11.314;2022-10-16T06:15:51;100898.13;;;15.75;87.48
60258;BME280;46115;44.484;11.314;2022-10-16T06:20:14;100900.41;;;15.81;86.70
60258;BME280;46115;44.484;11.314;2022-10-16T06:24:37;100912.09;;;15.93;86.36
60258;BME280;46115;44.484;11.314;2022-10-16T06:29:01;100924.84;;;16.29;83.67
60258;BME280;46115;44.484;11.314;2022-10-16T06:33:24;100927.81;;;16.78;81.38
60258;BME280;46115;44.484;11.314;2022-10-16T06:37:47;100930.34;;;17.07;80.17
60258;BME280;46115;44.484;11.314;2022-10-16T06:42:10;100913.88;;;17.38;77.80
60258;BME280;46115;44.484;11.314;2022-10-16T06:46:34;100949.59;;;17.75;76.40
60258;BME280;46115;44.484;11.314;2022-10-16T06:50:59;100960.78;;;17.93;75.76
60258;BME280;46115;44.484;11.314;2022-10-16T06:55:22;100960.69;;;18.31;73.72
60258;BME280;46115;44.484;11.314;2022-10-16T06:59:45;100960.78;;;18.66;71.86
60258;BME280;46115;44.484;11.314;2022-10-16T07:04:09;100978.38;;;18.82;71.32
60258;BME280;46115;44.484;11.314;2022-10-16T07:08:33;100984.63;;;19.40;69.25
60258;BME280;46115;44.484;11.314;2022-10-16T07:12:56;100981.53;;;20.13;66.34
60258;BME280;46115;44.484;11.314;2022-10-16T07:17:19;100988.69;;;20.89;63.21
60258;BME280;46115;44.484;11.314;2022-10-16T07:21:43;100975.13;;;22.73;56.95
60258;BME280;46115;44.484;11.314;2022-10-16T07:26:08;100998.78;;;24.04;52.92
60258;BME280;46115;44.484;11.314;2022-10-16T07:30:34;101013.09;;;23.77;53.36
60258;BME280;46115;44.484;11.314;2022-10-16T07:34:58;101019.13;;;23.32;55.05
60258;BME280;46115;44.484;11.314;2022-10-16T07:39:22;101029.47;;;25.21;49.93
60258;BME280;46115;44.484;11.314;2022-10-16T07:43:47;101036.16;;;25.70;47.93
60258;BME280;46115;44.484;11.314;2022-10-16T07:48:10;101038.25;;;26.44;45.99
60258;BME280;46115;44.484;11.314;2022-10-16T07:52:32;101039.16;;;26.27;45.69
60258;BME280;46115;44.484;11.314;2022-10-16T07:56:56;101042.56;;;26.71;44.36
60258;BME280;46115;44.484;11.314;2022-10-16T08:01:19;101042.31;;;26.06;45.67
60258;BME280;46115;44.484;11.314;2022-10-16T08:05:42;101044.88;;;27.24;43.30
60258;BME280;46115;44.484;11.314;2022-10-16T08:10:05;101054.25;;;28.96;39.81
60258;BME280;46115;44.484;11.314;2022-10-16T08:14:29;101044.50;;;28.40;40.77
60258;BME280;46115;44.484;11.314;2022-10-16T08:18:52;101065.44;;;29.85;38.14
60258;BME280;46115;44.484;11.314;2022-10-16T08:23:15;101055.28;;;30.67;36.11
60258;BME280;46115;44.484;11.314;2022-10-16T08:27:38;101078.75;;;30.02;36.72
60258;BME280;46115;44.484;11.314;2022-10-16T08:32:03;101084.53;;;32.29;33.36
60258;BME280;46115;44.484;11.314;2022-10-16T08:36:26;101089.38;;;32.34;32.64
60258;BME280;46115;44.484;11.314;2022-10-16T08:40:49;101100.72;;;33.46;31.67
60258;BME280;46115;44.484;11.314;2022-10-16T08:45:35;101110.44;;;33.95;30.71
60258;BME280;46115;44.484;11.314;2022-10-16T08:50:09;101100.97;;;33.84;30.44
60258;BME280;46115;44.484;11.314;2022-10-16T08:54:35;101096.31;;;33.91;29.66
60258;BME280;46115;44.484;11.314;2022-10-16T08:59:06;101070.53;;;33.99;29.54
60258;BME280;46115;44.484;11.314;2022-10-16T09:03:58;101096.97;;;34.71;28.40
60258;BME280;46115;44.484;11.314;2022-10-16T09:08:32;101100.13;;;35.69;27.12
60258;BME280;46115;44.484;11.314;2022-10-16T09:13:02;101091.41;;;35.54;27.09
60258;BME280;46115;44.484;11.314;2022-10-16T09:17:45;101090.53;;;34.90;27.24
60258;BME280;46115;44.484;11.314;2022-10-16T09:22:14;101100.94;;;35.76;26.69
60258;BME280;46115;44.484;11.314;2022-10-16T09:26:39;101075.63;;;33.89;29.14
60258;BME280;46115;44.484;11.314;2022-10-16T09:31:02;101079.94;;;32.08;31.85
60258;BME280;46115;44.484;11.314;2022-10-16T09:35:31;101068.94;;;30.37;34.99
60258;BME280;46115;44.484;11.314;2022-10-16T09:39:54;101060.41;;;29.36;37.55
60258;BME280;46115;44.484;11.314;2022-10-16T09:44:23;101055.72;;;29.53;36.83
60258;BME280;46115;44.484;11.314;2022-10-16T09:48:48;101061.53;;;28.34;39.41
60258;BME280;46115;44.484;11.314;2022-10-16T09:53:13;101053.88;;;27.09;41.44
60258;BME280;46115;44.484;11.314;2022-10-16T09:57:48;101052.69;;;27.76;40.90
60258;BME280;46115;44.484;11.314;2022-10-16T10:02:15;101032.63;;;27.69;41.56
60258;BME280;46115;44.484;11.314;2022-10-16T10:06:43;101057.09;;;27.12;42.33
60258;BME280;46115;44.484;11.314;2022-10-16T10:11:06;101050.28;;;27.00;43.52
60258;BME280;46115;44.484;11.314;2022-10-16T10:15:34;101049.56;;;26.98;43.25
60258;BME280;46115;44.484;11.314;2022-10-16T10:20:00;101038.50;;;26.33;43.96
60258;BME280;46115;44.484;11.314;2022-10-16T10:24:23;101057.78;;;26.64;43.43
60258;BME280;46115;44.484;11.314;2022-10-16T10:28:53;101047.09;;;26.62;43.30
60258;BME280;46115;44.484;11.314;2022-10-16T10:33:24;101047.56;;;25.64;44.81
60258;BME280;46115;44.484;11.314;2022-10-16T10:38:03;101048.16;;;24.96;46.56
60258;BME280;46115;44.484;11.314;2022-10-16T10:42:30;101035.28;;;25.26;45.91
60258;BME280;46115;44.484;11.314;2022-10-16T10:46:57;101029.72;;;25.09;45.35
60258;BME280;46115;44.484;11.314;2022-10-16T10:51:28;101034.88;;;25.82;43.57
60258;BME280;46115;44.484;11.314;2022-10-16T10:56:00;101037.47;;;25.92;43.56
60258;BME280;46115;44.484;11.314;2022-10-16T11:00:33;101038.06;;;25.60;44.87
60258;BME280;46115;44.484;11.314;2022-10-16T11:05:19;101019.22;;;25.50;44.52
60258;BME280;46115;44.484;11.314;2022-10-16T11:09:47;101039.34;;;25.30;44.79
60258;BME280;46115;44.484;11.314;2022-10-16T11:14:16;101026.28;;;25.43;44.40
60258;BME280;46115;44.484;11.314;2022-10-16T11:18:49;101019.72;;;25.28;44.25
60258;BME280;46115;44.484;11.314;2022-10-16T11:23:17;101023.03;;;25.65;44.12
60258;BME280;46115;44.484;11.314;2022-10-16T11:27:47;101021.19;;;25.66;43.62
60258;BME280;46115;44.484;11.314;2022-10-16T11:32:20;101014.19;;;25.11;44.39
60258;BME280;46115;44.484;11.314;2022-10-16T11:36:48;101016.66;;;25.23;44.78
60258;BME280;46115;44.484;11.314;2022-10-16T11:41:20;101021.88;;;24.71;45.50
60258;BME280;46115;44.484;11.314;2022-10-16T11:45:47;101000.47;;;24.60;45.95
60258;BME280;46115;44.484;11.314;2022-10-16T11:50:21;100992.38;;;24.77;44.94
60258;BME280;46115;44.484;11.314;2022-10-16T11:54:49;100972.41;;;24.15;44.95
60258;BME280;46115;44.484;11.314;2022-10-16T11:59:22;101010.03;;;24.54;46.12
60258;BME280;46115;44.484;11.314;2022-10-16T12:03:59;101008.75;;;24.76;45.69
60258;BME280;46115;44.484;11.314;2022-10-16T12:08:24;101013.13;;;24.59;45.92
60258;BME280;46115;44.484;11.314;2022-10-16T12:12:48;101001.38;;;24.50;46.57
60258;BME280;46115;44.484;11.314;2022-10-16T12:17:25;100994.88;;;24.16;47.50
60258;BME280;46115;44.484;11.314;2022-10-16T12:21:49;100992.59;;;24.48;46.91
60258;BME280;46115;44.484;11.314;2022-10-16T12:26:24;100996.28;;;24.30;46.94
60258;BME280;46115;44.484;11.314;2022-10-16T12:30:53;100999.72;;;24.67;46.10
60258;BME280;46115;44.484;11.314;2022-10-16T12:35:19;100991.56;;;24.32;46.67
60258;BME280;46115;44.484;11.314;2022-10-16T12:39:43;100992.41;;;24.32;46.47
60258;BME280;46115;44.484;11.314;2022-10-16T12:44:24;100993.53;;;24.02;47.47
60258;BME280;46115;44.484;11.314;2022-10-16T12:48:47;101002.22;;;24.51;46.74
60258;BME280;46115;44.484;11.314;2022-10-16T12:53:18;100992.38;;;24.05;47.59
60258;BME280;46115;44.484;11.314;2022-10-16T12:57:55;100992.97;;;23.99;47.14
60258;BME280;46115;44.484;11.314;2022-10-16T13:02:43;100994.16;;;24.14;46.73
60258;BME280;46115;44.484;11.314;2022-10-16T13:07:34;100998.78;;;24.04;46.74
60258;BME280;46115;44.484;11.314;2022-10-16T13:12:11;100993.88;;;24.44;46.22
60258;BME280;46115;44.484;11.314;2022-10-16T13:16:45;100996.13;;;23.94;47.03
60258;BME280;46115;44.484;11.314;2022-10-16T13:21:29;101006.03;;;24.58;46.89
60258;BME280;46115;44.484;11.314;2022-10-16T13:26:04;100988.34;;;24.46;46.33
60258;BME280;46115;44.484;11.314;2022-10-16T13:30:31;100983.69;;;24.38;46.41
60258;BME280;46115;44.484;11.314;2022-10-16T13:34:57;101010.31;;;24.33;46.74
60258;BME280;46115;44.484;11.314;2022-10-16T13:39:25;101010.88;;;24.27;46.40
60258;BME280;46115;44.484;11.314;2022-10-16T13:43:50;101018.97;;;24.37;46.43
60258;BME280;46115;44.484;11.314;2022-10-16T13:48:14;101018.22;;;24.44;46.40
60258;BME280;46115;44.484;11.314;2022-10-16T13:52:37;101027.22;;;24.35;46.32
60258;BME280;46115;44.484;11.314;2022-10-16T13:57:06;101005.03;;;23.57;47.28
60258;BME280;46115;44.484;11.314;2022-10-16T14:01:31;101019.44;;;24.32;46.50
60258;BME280;46115;44.484;11.314;2022-10-16T14:05:58;101030.63;;;24.37;46.38
60258;BME280;46115;44.484;11.314;2022-10-16T14:10:24;100998.38;;;24.26;46.68
60258;BME280;46115;44.484;11.314;2022-10-16T14:14:51;101018.00;;;24.28;46.79
60258;BME280;46115;44.484;11.314;2022-10-16T14:19:20;101018.13;;;23.99;47.51
60258;BME280;46115;44.484;11.314;2022-10-16T14:23:46;101011.25;;;23.77;47.75
60258;BME280;46115;44.484;11.314;2022-10-16T14:28:16;101024.81;;;24.22;47.01
60258;BME280;46115;44.484;11.314;2022-10-16T14:32:42;101024.34;;;24.09;46.90
60258;BME280;46115;44.484;11.314;2022-10-16T14:37:23;101016.03;;;23.83;47.39
60258;BME280;46115;44.484;11.314;2022-10-16T14:41:49;101039.03;;;23.97;47.66
60258;BME280;46115;44.484;11.314;2022-10-16T14:46:13;101022.59;;;24.18;47.11
60258;BME280;46115;44.484;11.314;2022-10-16T14:50:42;101031.69;;;24.17;47.10
60258;BME280;46115;44.484;11.314;2022-10-16T14:55:06;101029.78;;;24.27;46.74
60258;BME280;46115;44.484;11.314;2022-10-16T14:59:32;101033.28;;;24.10;47.27
60258;BME280;46115;44.484;11.314;2022-10-16T15:03:56;101031.53;;;23.81;47.77
60258;BME280;46115;44.484;11.314;2022-10-16T15:08:20;101034.00;;;24.12;47.64
60258;BME280;46115;44.484;11.314;2022-10-16T15:12:43;101029.69;;;24.19;47.37
60258;BME280;46115;44.484;11.314;2022-10-16T15:17:08;101032.22;;;24.20;46.72
60258;BME280;46115;44.484;11.314;2022-10-16T15:21:32;101039.78;;;23.80;47.81
60258;BME280;46115;44.484;11.314;2022-10-16T15:26:02;101036.88;;;23.63;47.70
60258;BME280;46115;44.484;11.314;2022-10-16T15:30:27;101038.25;;;23.58;47.61
60258;BME280;46115;44.484;11.314;2022-10-16T15:34:49;101037.13;;;23.41;47.89
60258;BME280;46115;44.484;11.314;2022-10-16T15:39:14;101026.34;;;23.41;47.78
60258;BME280;46115;44.484;11.314;2022-10-16T15:43:39;101040.28;;;23.37;48.86
60258;BME280;46115;44.484;11.314;2022-10-16T15:48:02;101035.16;;;23.43;48.70
60258;BME280;46115;44.484;11.314;2022-10-16T15:52:25;101041.28;;;23.36;48.66
60258;BME280;46115;44.484;11.314;2022-10-16T15:56:48;101040.28;;;23.17;49.20
60258;BME280;46115;44.484;11.314;2022-10-16T16:01:12;101025.53;;;23.12;49.26
60258;BME280;46115;44.484;11.314;2022-10-16T16:05:38;101036.75;;;22.97;49.88
60258;BME280;46115;44.484;11.314;2022-10-16T16:10:03;101046.53;;;23.08;49.40
60258;BME280;46115;44.484;11.314;2022-10-16T16:14:26;101048.09;;;23.01;49.81
60258;BME280;46115;44.484;11.314;2022-10-16T16:18:52;101049.09;;;23.00;49.55
60258;BME280;46115;44.484;11.314;2022-10-16T16:23:15;101054.59;;;23.18;49.09
60258;BME280;46115;44.484;11.314;2022-10-16T16:27:38;101065.22;;;22.81;50.51
60258;BME280;46115;44.484;11.314;2022-10-16T16:32:01;101055.81;;;22.75;51.26
60258;BME280;46115;44.484;11.314;2022-10-16T16:36:25;101057.91;;;22.52;52.41
60258;BME280;46115;44.484;11.314;2022-10-16T16:40:48;101070.22;;;22.55;52.78
60258;BME280;46115;44.484;11.314;2022-10-16T16:45:11;101057.81;;;22.23;53.60
60258;BME280;46115;44.484;11.314;2022-10-16T16:49:33;101073.50;;;22.18;54.14
60258;BME280;46115;44.484;11.314;2022-10-16T16:53:58;101079.88;;;22.17;54.17
60258;BME280;46115;44.484;11.314;2022-10-16T22:06:09;101381.50;;;18.22;77.30
60258;BME280;46115;44.484;11.314;2022-10-16T22:10:32;101385.03;;;18.23;77.39
60258;BME280;46115;44.484;11.314;2022-10-16T22:14:54;101376.56;;;18.16;77.63
60258;BME280;46115;44.484;11.314;2022-10-16T22:19:19;101388.22;;;18.15;77.96
60258;BME280;46115;44.484;11.314;2022-10-16T22:23:43;101382.88;;;18.15;77.55
60258;BME280;46115;44.484;11.314;2022-10-16T22:28:06;101389.19;;;18.14;77.65
60258;BME280;46115;44.484;11.314;2022-10-16T22:32:29;101398.28;;;18.12;77.92
60258;BME280;46115;44.484;11.314;2022-10-16T22:36:53;101401.81;;;18.12;78.27
60258;BME280;46115;44.484;11.314;2022-10-16T22:41:18;101404.22;;;18.02;77.99
60258;BME280;46115;44.484;11.314;2022-10-16T22:45:41;101401.63;;;18.01;78.27
60258;BME280;46115;44.484;11.314;2022-10-16T22:50:05;101403.66;;;17.97;78.70
60258;BME280;46115;44.484;11.314;2022-10-16T22:54:28;101406.78;;;17.77;79.37
60258;BME280;46115;44.484;11.314;2022-10-16T22:58:52;101393.28;;;17.64;79.19
60258;BME280;46115;44.484;11.314;2022-10-16T23:03:14;101396.06;;;17.63;79.95
60258;BME280;46115;44.484;11.314;2022-10-16T23:07:37;101408.66;;;17.61;80.46
60258;BME280;46115;44.484;11.314;2022-10-16T23:12:00;101410.09;;;17.66;79.88
60258;BME280;46115;44.484;11.314;2022-10-16T23:16:24;101409.25;;;17.52;80.48
60258;BME280;46115;44.484;11.314;2022-10-16T23:20:47;101404.50;;;17.42;80.90
60258;BME280;46115;44.484;11.314;2022-10-16T23:25:10;101366.13;;;17.15;80.51
60258;BME280;46115;44.484;11.314;2022-10-16T23:29:32;101405.84;;;17.35;80.62
60258;BME280;46115;44.484;11.314;2022-10-16T23:33:57;101408.41;;;17.37;80.65
60258;BME280;46115;44.484;11.314;2022-10-16T23:38:20;101405.13;;;17.32;81.22
60258;BME280;46115;44.484;11.314;2022-10-16T23:42:43;101413.91;;;17.34;80.91
60258;BME280;46115;44.484;11.314;2022-10-16T23:47:06;101411.81;;;17.10;81.84
60258;BME280;46115;44.484;11.314;2022-10-16T23:51:30;101408.59;;;17.05;82.44
60258;BME280;46115;44.484;11.314;2022-10-16T23:55:53;101417.13;;;16.96;82.94
